createdAt,value
2017-11-08T00:08:33.000Z,23.91
2017-11-08T00:18:33.000Z,23.94
2017-11-08T00:28:33.000Z,23.89
2017-11-08T00:38:33.000Z,23.79
2017-11-08T00:48:33.000Z,23.86
2017-11-08T00:58:34.000Z,23.71
2017-11-08T01:08:34.000Z,23.74
2017-11-08T01:18:34.000Z,23.73
2017-11-08T01:28:34.000Z,23.64
2017-11-08T01:38:34.000Z,23.65
2017-11-08T01:48:34.000Z,23.59
2017-11-08T01:58:34.000Z,23.62
2017-11-08T02:08:34.000Z,23.55
2017-11-08T02:18:34.000Z,23.56
2017-11-08T02:28:34.000Z,23.47
2017-11-08T02:38:34.000Z,23.39
2017-11-08T02:48:34.000Z,23.38
2017-11-08T02:58:34.000Z,23.42
2017-11-08T03:08:34.000Z,23.34
2017-11-08T03:18:34.000Z,23.29
2017-11-08T03:28:34.000Z,23.25
2017-11-08T03:38:34.000Z,23.15
2017-11-08T03:48:34.000Z,23.16
2017-11-08T03:58:34.000Z,23.11
2017-11-08T04:08:34.000Z,23
2017-11-08T04:18:34.000Z,23.08
2017-11-08T04:28:34.000Z,23.02
2017-11-08T04:38:34.000Z,23
2017-11-08T04:48:34.000Z,22.96
2017-11-08T04:58:34.000Z,22.94
2017-11-08T05:08:34.000Z,22.92
2017-11-08T05:18:34.000Z,22.98
2017-11-08T05:28:34.000Z,22.96
2017-11-08T05:38:34.000Z,22.94
2017-11-08T05:48:34.000Z,22.96
2017-11-08T05:58:34.000Z,22.96
2017-11-08T06:08:34.000Z,22.95
2017-11-08T06:18:34.000Z,22.98
2017-11-08T06:28:34.000Z,23
2017-11-08T06:38:34.000Z,23.04
2017-11-08T06:48:34.000Z,23.09
2017-11-08T06:58:34.000Z,23.11
2017-11-08T07:08:34.000Z,23.18
2017-11-08T07:18:36.000Z,23.18
2017-11-08T07:28:34.000Z,23.19
2017-11-08T07:38:34.000Z,23.28
2017-11-08T07:48:34.000Z,23.31
2017-11-08T07:58:34.000Z,23.3
2017-11-08T08:08:34.000Z,23.38
2017-11-08T08:18:35.000Z,23.36
2017-11-08T08:28:34.000Z,23.45
2017-11-08T08:38:34.000Z,23.4
2017-11-08T08:48:34.000Z,23.45
2017-11-08T08:58:34.000Z,23.53
2017-11-08T09:08:34.000Z,23.45
2017-11-08T09:18:35.000Z,23.54
2017-11-08T09:28:35.000Z,23.55
2017-11-08T09:38:35.000Z,23.65
2017-11-08T09:48:35.000Z,23.6
2017-11-08T09:58:35.000Z,23.53
2017-11-08T10:08:35.000Z,23.58
2017-11-08T10:18:35.000Z,23.61
2017-11-08T10:28:35.000Z,23.62
2017-11-08T10:38:37.000Z,23.68
2017-11-08T10:48:35.000Z,23.68
2017-11-08T10:58:35.000Z,23.71
2017-11-08T11:08:35.000Z,23.77
2017-11-08T11:18:35.000Z,23.82
2017-11-08T11:28:35.000Z,23.81
2017-11-08T11:38:35.000Z,23.86
2017-11-08T11:48:35.000Z,23.86
2017-11-08T11:58:35.000Z,23.96
2017-11-08T12:08:35.000Z,24.02
2017-11-08T12:18:35.000Z,24.03
2017-11-08T12:28:35.000Z,24.13
2017-11-08T12:38:35.000Z,24.17
2017-11-08T12:48:35.000Z,24.14
2017-11-08T12:58:35.000Z,24.21
2017-11-08T13:08:35.000Z,24.26
2017-11-08T13:18:35.000Z,24.12
2017-11-08T13:28:35.000Z,24.23
2017-11-08T13:38:35.000Z,24.19
2017-11-08T13:48:35.000Z,24.26
2017-11-08T13:58:35.000Z,24.21
2017-11-08T14:08:35.000Z,24.23
2017-11-08T14:18:35.000Z,24.34
2017-11-08T14:28:35.000Z,24.42
2017-11-08T14:38:35.000Z,24.33
2017-11-08T14:48:35.000Z,24.3
2017-11-08T14:58:35.000Z,24.33
2017-11-08T15:08:35.000Z,24.3
2017-11-08T15:18:35.000Z,24.34
2017-11-08T15:28:35.000Z,24.31
2017-11-08T15:38:35.000Z,24.31
2017-11-08T15:48:35.000Z,24.36
2017-11-08T15:58:37.000Z,24.37
2017-11-08T16:08:35.000Z,24.27
2017-11-08T16:18:35.000Z,24.27
2017-11-08T16:28:35.000Z,24.33
2017-11-08T16:38:35.000Z,24.35
2017-11-08T16:48:35.000Z,24.35
2017-11-08T16:58:36.000Z,24.43
2017-11-08T17:08:35.000Z,24.32
2017-11-08T17:18:35.000Z,24.45
2017-11-08T17:28:35.000Z,24.36
2017-11-08T17:38:36.000Z,24.45
2017-11-08T17:48:36.000Z,24.59
2017-11-08T17:58:36.000Z,24.7
2017-11-08T18:08:36.000Z,24.69
2017-11-08T18:18:36.000Z,24.65
2017-11-08T18:28:36.000Z,24.64
2017-11-08T18:38:36.000Z,24.58
2017-11-08T18:48:36.000Z,24.58
2017-11-08T18:58:36.000Z,24.54
2017-11-08T19:08:36.000Z,24.63
2017-11-08T19:18:36.000Z,24.59
2017-11-08T19:28:36.000Z,24.5
2017-11-08T19:38:36.000Z,24.56
2017-11-08T19:48:36.000Z,24.52
2017-11-08T19:58:36.000Z,24.59
2017-11-08T20:08:36.000Z,24.47
2017-11-08T20:18:36.000Z,24.52
2017-11-08T20:28:36.000Z,24.535
2017-11-08T20:38:36.000Z,24.45
2017-11-08T20:48:36.000Z,24.49
2017-11-08T20:58:36.000Z,24.46
2017-11-08T21:08:36.000Z,24.42
2017-11-08T21:18:36.000Z,24.48
2017-11-08T21:28:36.000Z,24.42
2017-11-08T21:38:36.000Z,24.33
2017-11-08T21:48:36.000Z,24.34
2017-11-08T21:58:36.000Z,24.39
2017-11-08T22:08:36.000Z,24.37
2017-11-08T22:18:36.000Z,24.28
2017-11-08T22:28:36.000Z,24.31
2017-11-08T22:38:36.000Z,24.27
2017-11-08T22:48:36.000Z,24.27
2017-11-08T22:58:36.000Z,24.22
2017-11-08T23:08:36.000Z,24.21
2017-11-08T23:18:36.000Z,24.06
2017-11-08T23:28:36.000Z,24.02
2017-11-08T23:38:36.000Z,23.99
2017-11-08T23:48:36.000Z,24.19
2017-11-08T23:58:36.000Z,24.32
